Jacobus, PA (17407)

12:16 AM EDT on September 22, 2014 (GMT -0400)
Ore Valley | Change Station
CLOSE
Current Station
Personal Weather Station
Location: York, PA
Elevation: 620 ft
Nearby Weather Stations

Elev 620 ft 39.93 °N, 76.66 °W | Updated 2 minutes ago

Partly Cloudy
Partly Cloudy
63.0 °F
Feels Like 63.0 °F
N
2.7
Wind Variable Wind from NW

Today
High -- | Low -- °F
--% Chance of Precip.
Yesterday
High -- | Low -- °F
Precip. -- in
6:54 AM 7:03 PM
Waning Crescent, 4% visible
Pressure 29.73 in
Visibility 10.0 miles
Clouds Clear
Dew Point 59 °F
Humidity 87%
Rainfall 0.00 in
Snow Depth Not available.
UV 0 out of 12
Pollen 3.50 out of 12
Ozone Good
PM2.5 Moderate
Flu Activity Not available.
METAR KTHV 220353Z AUTO 29008KT 10SM CLR 19/13 A2973 RMK AO2 SLP067 T01890128

More Conditions Fewer Conditions

Pressure 29.73 in
Visibility 10.0 miles
Clouds Clear
Dew Point 59 °F
Humidity 87%
Rainfall 0.00 in
Snow Depth Not available.
UV 0 out of 12
Pollen 3.50 out of 12
Ozone Good
PM2.5 Moderate
Flu Activity Not available.
METAR KTHV 220353Z AUTO 29008KT 10SM CLR 19/13 A2973 RMK AO2 SLP067 T01890128

More Conditions Fewer Conditions

10-Day Weather Forecast

Almanac

Astronomy

Sep. 22, 2014 Rise Set
Actual Time 6:54 AM EDT 7:03 PM EDT
Civil Twilight 6:27 AM EDT 7:30 PM EDT
Nautical Twilight 5:55 AM EDT 8:02 PM EDT
Astronomical Twilight 5:23 AM EDT 8:34 PM EDT
Moon 5:20 AM EDT 6:10 PM EDT
Length of Visible Light 13h 03m
Length of Day
12h 09m
Tomorrow will be 2m 36s shorter.
Waning Crescent, 4% of the Moon is Illuminated
Today
Waning Crescent
Sep 24
New
Oct 1
First Quarter
Oct 8
Full
Oct 15
Last Quarter

Yesterday's Extremes

State Highs State Lows

Community

WunderPhotos

Upload Photos

1,755,383 photos uploaded!

Nearby

Air Quality

  Air Quality AQ Index Pollutant
Yesterday Moderate
PM2.5
Yesterday Good
OZONE
Current Moderate
PM2.5
Current Good
OZONE
Sunday Moderate
PM2.5
Monday Good
PM2.5
Tuesday Good
PM2.5

Snow Depth

Station Depth Elevation
No new snow has been reported.

Earthquake Activity

City Distance Mag. Time & Date
No recent earthquake activity has been reported nearby.
Minimum magnitude displayed is 2.5.

Coastal Water Temperatures

Place Temperature
No Stations Reporting

Nearby Weather Stations